Terminal Aerodrome Forecast
Issued by NWS

Home | Current Version | Previous Version | Graphics & Text | Print | Product List | Glossary On
Versions: 1 2 3 4 5 6 7 8 9 10 11 12 13 14 15 16 17 18 19 20 21 22 23 24 25 26 27 28 29 30 31 32 33 34 35 36 37 38 39 40
000
FTUS45 KBOU 102339
TAFAPA
TAF
KAPA 102339Z 1100/1124 28015G25KT P6SM FEW080 SCT140 BKN180
     FM110100 20010KT P6SM SCT080 BKN180
     FM110400 26008KT P6SM SCT080 BKN150
     FM110800 34008KT P6SM BKN080 OVC120
     FM111100 01009KT P6SM SCT030 BKN050 OVC120 PROB30 1112/1115 4SM
      -SN BKN030 OVC050
     FM111500 03008KT P6SM SCT060 BKN120
     FM111800 06008KT P6SM SCT080
     FM112300 32008KT P6SM FEW080 SCT150=

USA.gov is the U.S. government's official web portal to all federal, state and local government web resources and services.